Time;durP1;ratioP1;P1;durP2;ratioP2;P2;SDS_P1;SDS_P2;PMS_P1;PMS_P2;Temp;Humidity;BMP_temperature;BMP_pressure;BME280_temperature;BME280_humidity;BME280_pressure;Samples;Min_cycle;Max_cycle;Signal;HPM_P1;HPM_P2
2023/01/12 00:02:17;;;;;;;11.67;3.10;;;8.60;99.90;;;;;;5059614;28;20529;-73
2023/01/12 00:05:03;;;;;;;13.03;3.23;;;8.60;99.90;;;;;;5059522;28;20469;-73
2023/01/12 00:07:49;;;;;;;6.97;2.63;;;8.50;99.90;;;;;;5072370;28;20461;-73
2023/01/12 00:10:35;;;;;;;9.00;2.50;;;8.50;99.90;;;;;;5074644;28;20464;-74
2023/01/12 00:13:20;;;;;;;14.97;3.50;;;8.50;99.90;;;;;;5074399;28;20444;-73
2023/01/12 00:19:20;;;;;;;16.20;2.63;;;8.60;99.90;;;;;;5073988;28;20981;-73
2023/01/12 00:22:10;;;;;;;9.93;2.13;;;8.60;99.90;;;;;;5066481;28;20445;-73
2023/01/12 00:24:55;;;;;;;13.50;3.07;;;8.60;99.90;;;;;;5085397;28;20498;-73
2023/01/12 00:27:41;;;;;;;16.53;2.80;;;8.50;99.90;;;;;;5063805;28;20475;-73
2023/01/12 00:30:27;;;;;;;10.90;3.00;;;8.50;99.90;;;;;;5062699;28;20658;-74
2023/01/12 00:33:15;;;;;;;14.23;3.60;;;8.60;99.90;;;;;;5067365;28;20442;-73
2023/01/12 00:36:03;;;;;;;9.83;2.60;;;8.60;99.90;;;;;;5078889;28;20455;-74
2023/01/12 00:38:48;;;;;;;11.07;2.37;;;8.60;99.90;;;;;;5077968;28;20927;-73
2023/01/12 00:47:43;;;;;;;9.90;2.33;;;8.60;99.90;;;;;;5066470;28;20462;-73
2023/01/12 00:50:30;;;;;;;11.73;2.83;;;8.70;99.90;;;;;;5070020;28;20563;-73
2023/01/12 00:53:15;;;;;;;9.52;2.00;;;8.70;99.90;;;;;;5067839;28;20200;-74
2023/01/12 00:56:02;;;;;;;9.70;2.40;;;8.80;99.90;;;;;;5068140;28;20659;-73
2023/01/12 00:58:48;;;;;;;13.33;2.67;;;8.70;99.90;;;;;;5075859;28;20908;-73
2023/01/12 01:01:34;;;;;;;17.40;3.13;;;8.60;99.90;;;;;;5063249;28;20845;-74
2023/01/12 01:04:20;;;;;;;18.90;2.50;;;8.60;99.90;;;;;;5072466;28;20454;-74
2023/01/12 01:07:07;;;;;;;11.40;2.50;;;8.70;99.90;;;;;;5068512;28;20485;-74
2023/01/12 01:09:53;;;;;;;8.87;2.17;;;8.60;99.90;;;;;;5070143;28;20446;-73
2023/01/12 01:12:38;;;;;;;21.23;2.87;;;8.60;99.90;;;;;;5064191;28;20801;-72
2023/01/12 01:15:24;;;;;;;8.83;1.97;;;8.70;99.90;;;;;;5070068;28;20439;-73
2023/01/12 01:18:10;;;;;;;10.38;3.55;;;8.60;99.90;;;;;;5066304;28;20521;-73
2023/01/12 01:20:56;;;;;;;11.83;2.73;;;8.60;99.90;;;;;;5074929;28;20209;-73
2023/01/12 01:23:43;;;;;;;15.83;3.30;;;8.60;99.90;;;;;;5056923;28;20438;-73
2023/01/12 01:26:30;;;;;;;13.43;2.40;;;8.70;99.90;;;;;;5068888;28;20493;-73
2023/01/12 01:29:16;;;;;;;12.70;2.87;;;8.70;99.90;;;;;;5073919;28;20466;-73
2023/01/12 01:32:01;;;;;;;8.80;2.20;;;8.80;99.90;;;;;;5079557;28;20422;-73
2023/01/12 01:34:47;;;;;;;14.70;2.63;;;8.80;99.90;;;;;;5069904;28;20427;-72
2023/01/12 01:37:33;;;;;;;22.23;3.17;;;8.80;99.90;;;;;;5071364;28;21230;-73
2023/01/12 01:40:20;;;;;;;10.73;2.67;;;8.80;99.90;;;;;;5080096;28;20314;-73
2023/01/12 01:43:06;;;;;;;14.00;2.10;;;8.90;99.90;;;;;;5076190;28;20779;-73
2023/01/12 01:46:00;;;;;;;13.63;2.63;;;8.90;99.90;;;;;;5071584;28;20476;-73
2023/01/12 01:48:46;;;;;;;19.40;2.50;;;8.80;99.90;;;;;;5085931;28;20464;-73
2023/01/12 01:51:35;;;;;;;19.43;2.73;;;8.80;99.90;;;;;;5072867;28;20418;-73
2023/01/12 01:54:21;;;;;;;8.00;1.80;;;8.80;99.90;;;;;;5069995;28;20497;-73
2023/01/12 01:57:09;;;;;;;12.13;2.70;;;8.80;99.90;;;;;;5057784;28;20463;-73
2023/01/12 01:59:58;;;;;;;10.37;2.90;;;8.90;99.90;;;;;;5073538;28;20505;-74
2023/01/12 02:02:45;;;;;;;17.27;2.13;;;8.90;99.90;;;;;;5083075;28;20912;-73
2023/01/12 02:05:30;;;;;;;17.13;2.47;;;8.90;99.90;;;;;;5066999;28;20636;-74
2023/01/12 02:08:23;;;;;;;10.93;3.37;;;8.90;99.90;;;;;;5070438;28;20450;-74
2023/01/12 02:16:19;;;;;;;22.17;3.77;;;8.90;99.90;;;;;;5076254;28;20836;-74
2023/01/12 02:17:33;;;;;;;11.32;2.72;;;8.90;99.90;;;;;;5064617;28;20495;-74
2023/01/12 02:20:40;;;;;;;24.33;3.03;;;8.90;99.90;;;;;;5066375;28;20242;-73
2023/01/12 02:24:03;;;;;;;12.43;3.23;;;9.00;99.90;;;;;;5067816;28;20569;-73
2023/01/12 02:27:20;;;;;;;10.52;2.17;;;8.90;99.90;;;;;;5067270;28;20519;-74
2023/01/12 02:30:47;;;;;;;16.00;2.67;;;9.00;99.90;;;;;;5069874;28;20250;-73
2023/01/12 02:33:42;;;;;;;14.48;2.72;;;9.00;99.90;;;;;;5070188;28;20216;-73
2023/01/12 02:36:36;;;;;;;11.50;3.23;;;8.90;99.90;;;;;;5077028;28;20261;-73
2023/01/12 02:39:27;;;;;;;14.33;3.00;;;9.00;99.90;;;;;;5073299;28;20563;-74
2023/01/12 02:42:41;;;;;;;18.70;3.00;;;8.90;99.90;;;;;;5067325;28;20557;-74
2023/01/12 02:45:41;;;;;;;14.73;2.40;;;8.90;99.90;;;;;;5074638;28;20215;-73
2023/01/12 02:48:32;;;;;;;10.10;2.63;;;8.90;99.90;;;;;;5077016;28;21230;-73
2023/01/12 02:51:25;;;;;;;14.30;3.10;;;8.90;99.90;;;;;;5069666;28;20423;-74
2023/01/12 02:54:15;;;;;;;8.77;3.00;;;9.00;99.90;;;;;;5064899;28;20450;-73
2023/01/12 02:57:05;;;;;;;15.60;2.57;;;9.00;99.90;;;;;;5075957;28;21022;-74
2023/01/12 02:59:52;;;;;;;15.77;2.50;;;9.10;99.90;;;;;;5066006;28;20474;-72
2023/01/12 03:02:38;;;;;;;11.97;3.20;;;9.10;99.90;;;;;;5063113;28;20940;-74
2023/01/12 03:05:24;;;;;;;8.27;2.40;;;9.00;99.90;;;;;;5061084;28;20466;-73
2023/01/12 03:08:14;;;;;;;20.53;4.17;;;8.90;99.90;;;;;;5068435;28;21082;-73
2023/01/12 03:11:11;;;;;;;16.23;3.43;;;9.00;99.90;;;;;;5065596;28;20621;-73
2023/01/12 03:14:01;;;;;;;19.67;3.40;;;9.00;99.90;;;;;;5063547;28;20437;-73
2023/01/12 03:16:47;;;;;;;7.53;2.50;;;9.00;99.90;;;;;;5065745;28;20470;-74
2023/01/12 03:19:33;;;;;;;16.17;3.75;;;9.00;99.90;;;;;;5071709;28;20512;-74
2023/01/12 03:22:19;;;;;;;15.33;2.60;;;9.00;99.90;;;;;;5063367;28;20697;-74
2023/01/12 03:25:12;;;;;;;8.03;2.33;;;9.10;99.90;;;;;;5068409;28;20998;-74
2023/01/12 03:28:01;;;;;;;12.93;2.00;;;9.10;99.90;;;;;;5063807;28;20455;-73
2023/01/12 03:30:54;;;;;;;18.50;3.77;;;9.10;99.90;;;;;;5066143;28;20521;-73
2023/01/12 03:33:42;;;;;;;13.03;2.30;;;9.10;99.90;;;;;;5065693;28;20451;-73
2023/01/12 03:36:35;;;;;;;11.27;3.20;;;9.10;99.90;;;;;;5059845;28;20613;-74
2023/01/12 03:39:27;;;;;;;27.03;2.47;;;9.00;99.90;;;;;;5073164;28;20462;-74
2023/01/12 03:42:19;;;;;;;12.27;2.33;;;9.00;99.90;;;;;;5066410;28;20467;-73
2023/01/12 03:45:15;;;;;;;11.38;2.28;;;9.10;99.90;;;;;;5067217;28;20505;-74
2023/01/12 03:48:09;;;;;;;11.40;2.63;;;9.10;99.90;;;;;;5065033;28;20759;-73
2023/01/12 03:50:59;;;;;;;12.90;2.50;;;9.10;99.90;;;;;;5072094;28;20479;-73
2023/01/12 03:53:49;;;;;;;9.70;2.50;;;9.20;99.90;;;;;;5069497;28;20589;-73
2023/01/12 03:56:36;;;;;;;23.07;3.10;;;9.20;99.90;;;;;;5076327;28;20469;-73
2023/01/12 03:59:24;;;;;;;11.30;2.07;;;9.20;99.90;;;;;;5066872;28;20557;-74
2023/01/12 04:02:10;;;;;;;15.77;2.67;;;9.10;99.90;;;;;;5071678;28;20446;-73
2023/01/12 04:04:55;;;;;;;12.93;2.45;;;9.10;99.90;;;;;;5063857;28;20597;-74
2023/01/12 04:07:42;;;;;;;13.13;2.73;;;9.10;99.90;;;;;;5074707;28;20606;-74
2023/01/12 04:10:27;;;;;;;15.40;2.63;;;9.00;99.90;;;;;;5075209;28;20454;-73
2023/01/12 04:13:13;;;;;;;16.48;2.88;;;9.10;99.90;;;;;;5062594;28;20200;-73
2023/01/12 04:16:00;;;;;;;18.73;2.60;;;9.10;99.90;;;;;;5072755;28;20309;-74
2023/01/12 04:18:46;;;;;;;10.48;2.85;;;9.10;99.90;;;;;;5001086;22;20231;-76
2023/01/12 04:24:35;;;;;;;14.13;2.87;;;9.10;99.90;;;;;;4961075;28;20451;-76
2023/01/12 04:27:20;;;;;;;10.70;2.47;;;9.00;99.90;;;;;;4962609;28;20484;-76
2023/01/12 04:30:07;;;;;;;8.80;2.10;;;9.00;99.90;;;;;;4957116;28;20454;-76
2023/01/12 04:32:55;;;;;;;13.33;3.27;;;9.00;99.90;;;;;;4950929;28;20267;-76
2023/01/12 04:35:41;;;;;;;17.53;3.17;;;9.00;99.90;;;;;;4957103;28;20450;-76
2023/01/12 04:38:27;;;;;;;16.45;2.38;;;9.10;99.90;;;;;;4935471;28;20469;-76
2023/01/12 04:41:12;;;;;;;20.57;2.57;;;9.10;99.90;;;;;;4955616;28;20559;-75
2023/01/12 04:43:58;;;;;;;11.07;2.43;;;9.10;99.90;;;;;;4950239;28;20456;-76
2023/01/12 04:46:44;;;;;;;16.10;2.50;;;9.10;99.90;;;;;;4951288;28;20485;-76
2023/01/12 04:49:31;;;;;;;27.23;3.37;;;9.10;99.90;;;;;;4959223;28;20460;-76
2023/01/12 04:52:16;;;;;;;23.70;2.97;;;9.10;99.90;;;;;;4941845;28;20453;-76
2023/01/12 04:55:02;;;;;;;23.08;3.22;;;9.10;99.90;;;;;;4956250;28;20204;-76
2023/01/12 04:57:48;;;;;;;14.03;3.27;;;9.10;99.90;;;;;;4952897;28;20236;-76
2023/01/12 05:00:34;;;;;;;11.40;3.27;;;9.10;99.90;;;;;;4964733;28;20557;-76
2023/01/12 05:03:20;;;;;;;15.77;2.40;;;9.00;99.90;;;;;;4936596;28;20460;-76
2023/01/12 05:06:07;;;;;;;16.83;3.08;;;9.00;99.90;;;;;;4951449;28;20339;-76
2023/01/12 05:11:56;;;;;;;14.27;2.13;;;9.10;99.90;;;;;;4948392;28;20503;-76
2023/01/12 05:14:42;;;;;;;18.47;4.97;;;9.20;99.90;;;;;;4958328;28;20446;-76
2023/01/12 05:17:28;;;;;;;9.23;2.90;;;9.20;99.90;;;;;;4943430;28;20484;-76
2023/01/12 05:20:14;;;;;;;13.25;2.83;;;9.10;99.90;;;;;;4949743;28;20829;-75
2023/01/12 05:23:01;;;;;;;12.82;3.13;;;9.00;99.90;;;;;;4947819;28;20207;-76
2023/01/12 05:25:46;;;;;;;8.65;2.75;;;9.00;99.90;;;;;;4958358;28;20286;-76
2023/01/12 05:28:33;;;;;;;14.13;3.28;;;9.00;99.90;;;;;;4950467;28;20232;-76
2023/01/12 05:31:19;;;;;;;12.57;2.47;;;9.00;99.90;;;;;;4955318;28;20212;-76
2023/01/12 05:34:04;;;;;;;14.47;3.00;;;9.10;99.90;;;;;;4947188;28;20872;-76
2023/01/12 05:36:50;;;;;;;12.13;2.37;;;9.10;99.90;;;;;;4957940;28;20438;-76
2023/01/12 05:39:37;;;;;;;15.00;2.93;;;9.00;99.90;;;;;;4961164;28;20528;-76
2023/01/12 05:45:26;;;;;;;11.53;3.30;;;9.10;99.90;;;;;;4949160;28;20618;-76
2023/01/12 05:48:12;;;;;;;10.43;2.70;;;9.10;99.90;;;;;;4946483;28;20542;-76
2023/01/12 05:51:00;;;;;;;17.75;3.40;;;9.10;99.90;;;;;;4955315;28;20456;-76
2023/01/12 05:53:46;;;;;;;15.65;2.40;;;9.10;99.90;;;;;;4947630;28;20567;-76
2023/01/12 05:56:33;;;;;;;11.70;2.60;;;9.10;99.90;;;;;;4957277;28;20207;-76
2023/01/12 05:59:18;;;;;;;11.80;2.88;;;9.20;99.90;;;;;;4935095;28;20461;-76
2023/01/12 06:02:04;;;;;;;16.83;3.40;;;9.10;99.90;;;;;;4950324;28;20208;-76
2023/01/12 06:04:50;;;;;;;12.35;2.15;;;9.10;99.90;;;;;;4950499;28;20209;-76
2023/01/12 06:07:35;;;;;;;6.93;1.90;;;9.10;99.90;;;;;;4952552;28;20712;-76
2023/01/12 06:10:21;;;;;;;14.25;3.05;;;9.10;99.90;;;;;;4959403;28;20938;-76
2023/01/12 06:16:12;;;;;;;12.23;2.72;;;9.10;99.90;;;;;;4946790;28;20472;-76
2023/01/12 06:18:58;;;;;;;13.85;2.67;;;9.20;99.90;;;;;;4949294;28;20239;-76
2023/01/12 06:21:43;;;;;;;12.48;2.70;;;9.20;99.90;;;;;;4948686;28;20280;-76
2023/01/12 06:24:29;;;;;;;16.88;2.67;;;9.20;99.90;;;;;;4953647;28;20251;-76
2023/01/12 06:27:15;;;;;;;11.82;2.40;;;9.20;99.90;;;;;;4952708;28;20240;-76
2023/01/12 06:30:02;;;;;;;16.25;3.30;;;9.20;99.90;;;;;;4948965;28;20773;-76
2023/01/12 06:32:48;;;;;;;12.32;2.85;;;9.20;99.90;;;;;;4949539;28;20266;-76
2023/01/12 06:35:33;;;;;;;10.52;2.50;;;9.20;99.90;;;;;;4970240;28;20316;-76
2023/01/12 06:38:20;;;;;;;14.68;2.55;;;9.20;99.90;;;;;;4945996;28;20235;-76
2023/01/12 06:41:07;;;;;;;12.80;2.77;;;9.10;99.90;;;;;;4955594;28;20291;-76
2023/01/12 06:43:53;;;;;;;14.55;3.53;;;9.20;99.90;;;;;;4944459;28;20490;-76
2023/01/12 06:46:40;;;;;;;11.82;2.60;;;9.20;99.90;;;;;;4945983;28;20205;-76
2023/01/12 06:49:26;;;;;;;12.63;2.50;;;9.20;99.90;;;;;;4962036;28;20196;-76
2023/01/12 06:52:12;;;;;;;11.25;3.15;;;9.10;99.90;;;;;;4950702;28;20211;-76
2023/01/12 06:54:58;;;;;;;16.40;2.33;;;9.20;99.90;;;;;;4950769;28;20207;-76
2023/01/12 06:57:43;;;;;;;14.57;2.60;;;9.20;99.90;;;;;;4945503;28;20714;-76
2023/01/12 07:00:29;;;;;;;13.82;3.15;;;9.20;99.90;;;;;;4942711;28;20215;-76
2023/01/12 07:03:18;;;;;;;19.95;3.50;;;9.20;99.90;;;;;;4954392;28;20211;-76
2023/01/12 07:06:03;;;;;;;7.53;2.33;;;9.10;99.90;;;;;;4962945;28;20251;-76
2023/01/12 07:08:49;;;;;;;21.80;3.20;;;9.20;99.90;;;;;;4951490;28;20273;-76
2023/01/12 07:11:35;;;;;;;13.85;2.65;;;9.00;99.90;;;;;;4948702;28;20263;-76
2023/01/12 07:14:20;;;;;;;10.85;4.00;;;9.10;99.90;;;;;;4949921;28;20625;-76
2023/01/12 07:17:06;;;;;;;14.43;2.80;;;9.10;99.90;;;;;;4955055;28;20270;-76
2023/01/12 07:19:53;;;;;;;13.27;2.80;;;9.00;99.90;;;;;;4953170;28;20642;-76
2023/01/12 07:22:39;;;;;;;9.95;2.08;;;9.10;99.90;;;;;;4946386;28;20456;-76
2023/01/12 07:25:25;;;;;;;11.95;2.15;;;9.20;99.90;;;;;;4947675;28;20208;-76
2023/01/12 07:28:11;;;;;;;11.02;2.28;;;9.20;99.90;;;;;;4951868;28;20236;-75
2023/01/12 07:31:00;;;;;;;6.82;2.90;;;9.10;99.90;;;;;;4942683;28;20207;-75
2023/01/12 07:33:46;;;;;;;17.15;2.60;;;9.10;99.90;;;;;;4955279;28;20220;-76
2023/01/12 07:36:33;;;;;;;14.02;2.90;;;9.20;99.90;;;;;;4941479;28;20299;-76
2023/01/12 07:39:18;;;;;;;13.03;4.83;;;9.20;99.90;;;;;;4981068;28;20205;-76
2023/01/12 07:45:08;;;;;;;10.50;2.70;;;9.20;99.90;;;;;;4936060;28;20744;-76
2023/01/12 07:47:54;;;;;;;11.38;3.20;;;9.20;99.90;;;;;;4948612;28;20236;-76
2023/01/12 07:50:40;;;;;;;10.30;2.00;;;9.20;99.90;;;;;;4937770;28;20212;-76
2023/01/12 07:53:27;;;;;;;19.97;3.00;;;9.20;99.90;;;;;;4946259;28;21260;-76
2023/01/12 07:56:14;;;;;;;15.98;2.65;;;9.20;99.90;;;;;;4948949;28;20823;-76
2023/01/12 07:59:00;;;;;;;8.35;2.95;;;9.10;99.90;;;;;;4954013;28;20220;-76
2023/01/12 08:01:46;;;;;;;11.15;2.15;;;9.10;99.90;;;;;;4946744;28;20240;-76
2023/01/12 08:04:32;;;;;;;11.00;2.10;;;9.10;99.90;;;;;;4940042;28;20205;-76
2023/01/12 08:07:18;;;;;;;10.02;2.83;;;9.20;99.90;;;;;;4930997;28;20233;-76
2023/01/12 08:10:06;;;;;;;10.55;2.25;;;9.20;99.90;;;;;;4947662;28;20212;-76
2023/01/12 08:12:52;;;;;;;5.68;1.73;;;9.10;99.90;;;;;;4944690;28;20755;-76
2023/01/12 08:15:40;;;;;;;16.03;2.90;;;9.10;99.90;;;;;;4936917;28;20212;-76
2023/01/12 08:18:31;;;;;;;8.63;1.90;;;9.10;99.90;;;;;;4942227;28;20569;-76
2023/01/12 08:21:20;;;;;;;9.20;2.88;;;9.10;99.90;;;;;;4947356;28;20203;-76
2023/01/12 08:24:08;;;;;;;5.72;1.45;;;9.20;99.90;;;;;;4950276;28;20207;-76
2023/01/12 08:26:58;;;;;;;9.83;2.80;;;9.20;99.90;;;;;;4955772;28;20330;-76
2023/01/12 08:29:47;;;;;;;12.60;2.80;;;9.10;99.90;;;;;;4940505;28;20440;-76
2023/01/12 08:32:33;;;;;;;11.20;2.50;;;9.10;99.90;;;;;;4952809;28;20219;-75
2023/01/12 08:35:21;;;;;;;11.07;2.50;;;9.10;99.90;;;;;;4967749;28;20208;-74
2023/01/12 08:38:07;;;;;;;13.80;3.17;;;9.10;99.90;;;;;;4945391;28;20321;-76
2023/01/12 08:44:03;;;;;;;7.35;1.98;;;9.10;99.90;;;;;;4949313;28;20208;-76
2023/01/12 08:46:51;;;;;;;9.98;2.42;;;9.10;99.90;;;;;;4949070;28;20215;-76
2023/01/12 08:49:37;;;;;;;19.20;3.05;;;9.20;99.90;;;;;;4953988;28;20311;-76
2023/01/12 08:52:24;;;;;;;17.33;3.25;;;9.20;99.90;;;;;;4965516;28;20238;-76
2023/01/12 08:55:10;;;;;;;12.40;2.70;;;9.10;99.90;;;;;;4961228;28;20207;-76
2023/01/12 08:57:56;;;;;;;16.83;3.00;;;9.10;99.90;;;;;;4966623;28;20543;-76
2023/01/12 09:00:43;;;;;;;6.85;1.77;;;9.10;99.90;;;;;;4952591;28;20814;-76
2023/01/12 09:03:29;;;;;;;6.13;1.70;;;9.10;99.90;;;;;;4961869;28;20204;-76
2023/01/12 09:06:16;;;;;;;14.73;2.70;;;9.10;99.90;;;;;;4969988;28;20570;-76
2023/01/12 09:09:05;;;;;;;13.57;2.65;;;9.20;99.90;;;;;;4952280;28;20215;-76
2023/01/12 09:11:50;;;;;;;14.53;2.13;;;9.20;99.90;;;;;;4964028;28;20803;-76
2023/01/12 09:14:37;;;;;;;9.27;2.30;;;9.20;99.90;;;;;;4958020;28;20585;-76
2023/01/12 09:17:25;;;;;;;13.55;3.90;;;9.10;99.90;;;;;;4949887;28;20235;-76
2023/01/12 09:20:11;;;;;;;15.63;2.35;;;9.10;99.90;;;;;;4957001;28;20283;-76
2023/01/12 09:22:56;;;;;;;5.82;1.92;;;9.20;99.90;;;;;;4965759;28;20211;-76
2023/01/12 09:25:42;;;;;;;12.47;2.43;;;9.20;99.90;;;;;;4959795;28;20209;-76
2023/01/12 09:28:28;;;;;;;12.48;2.20;;;9.20;99.90;;;;;;4946580;28;21028;-76
2023/01/12 09:31:15;;;;;;;5.93;1.70;;;9.20;99.90;;;;;;4967355;28;20204;-76
2023/01/12 09:34:03;;;;;;;4.00;2.20;;;9.30;99.90;;;;;;4968013;28;20430;-76
2023/01/12 09:36:51;;;;;;;16.90;3.67;;;9.30;99.90;;;;;;4955764;28;20471;-75
2023/01/12 09:39:36;;;;;;;10.60;2.07;;;9.30;99.90;;;;;;4989142;28;20432;-75
2023/01/12 09:48:31;;;;;;;8.63;2.15;;;9.30;99.90;;;;;;4958966;28;20461;-75
2023/01/12 09:51:28;;;;;;;12.27;2.80;;;9.30;99.90;;;;;;4938684;28;20281;-75
2023/01/12 09:54:14;;;;;;;7.82;2.25;;;9.40;99.90;;;;;;4967320;28;20231;-75
2023/01/12 09:57:11;;;;;;;10.67;1.90;;;9.30;99.90;;;;;;4950203;28;20591;-76
2023/01/12 10:00:02;;;;;;;9.00;1.97;;;9.40;99.90;;;;;;4951605;28;20935;-75
2023/01/12 10:02:52;;;;;;;11.27;1.90;;;9.40;99.90;;;;;;4942973;28;20578;-76
2023/01/12 10:05:44;;;;;;;5.60;2.30;;;9.40;99.90;;;;;;4943210;28;20453;-75
2023/01/12 10:08:35;;;;;;;9.73;1.60;;;9.50;99.90;;;;;;4946562;28;20495;-76
2023/01/12 10:11:28;;;;;;;17.23;1.73;;;9.50;99.90;;;;;;4943187;28;20508;-75
2023/01/12 10:14:49;;;;;;;10.90;2.00;;;9.50;99.90;;;;;;4939079;28;20575;-75
2023/01/12 10:17:42;;;;;;;11.90;2.53;;;9.50;99.90;;;;;;4971617;22;20240;-73
2023/01/12 10:20:33;;;;;;;11.03;2.23;;;9.50;99.90;;;;;;5070763;28;20208;-72
2023/01/12 10:23:23;;;;;;;5.88;1.70;;;9.60;99.90;;;;;;5068365;28;20435;-73
2023/01/12 10:26:16;;;;;;;4.93;2.03;;;9.60;99.90;;;;;;5062363;28;20204;-73
2023/01/12 10:29:02;;;;;;;15.47;2.30;;;9.60;99.90;;;;;;5063797;28;20479;-72
2023/01/12 10:31:48;;;;;;;14.10;2.33;;;9.60;99.90;;;;;;5058909;28;20532;-72
2023/01/12 10:34:49;;;;;;;15.93;2.80;;;9.60;99.90;;;;;;5040335;28;20455;-73
2023/01/12 10:37:43;;;;;;;2.67;1.00;;;9.60;99.90;;;;;;5051103;28;20566;-73
2023/01/12 10:40:31;;;;;;;13.10;2.60;;;9.60;99.90;;;;;;5054314;28;20269;-73
2023/01/12 10:43:22;;;;;;;14.30;3.17;;;9.70;99.90;;;;;;5057489;28;20459;-73
2023/01/12 10:46:14;;;;;;;12.57;2.20;;;9.70;99.90;;;;;;5043667;28;20831;-73
2023/01/12 10:49:17;;;;;;;11.25;2.78;;;9.70;99.90;;;;;;5060983;28;21070;-73
2023/01/12 10:52:09;;;;;;;7.37;2.00;;;9.80;99.90;;;;;;5054511;28;20200;-73
2023/01/12 10:54:55;;;;;;;11.10;2.30;;;9.80;99.90;;;;;;5049878;28;20448;-73
2023/01/12 10:57:43;;;;;;;13.03;2.20;;;9.80;99.90;;;;;;5057591;28;20471;-73
2023/01/12 11:00:31;;;;;;;11.67;2.30;;;9.80;99.90;;;;;;5063875;28;20454;-73
2023/01/12 11:03:32;;;;;;;4.83;1.90;;;9.80;99.90;;;;;;5059516;28;20507;-73
2023/01/12 11:06:27;;;;;;;7.43;2.10;;;9.80;99.90;;;;;;5042025;28;20807;-73
2023/01/12 11:09:24;;;;;;;7.57;2.05;;;9.80;99.90;;;;;;5059816;28;20551;-73
2023/01/12 11:12:24;;;;;;;9.90;2.53;;;9.80;99.90;;;;;;5062387;28;20200;-73
2023/01/12 11:15:18;;;;;;;8.07;1.95;;;9.80;99.90;;;;;;5051186;28;20455;-73
2023/01/12 11:18:31;;;;;;;7.20;2.03;;;9.80;99.90;;;;;;5059405;28;20235;-73
2023/01/12 11:21:20;;;;;;;10.90;2.07;;;9.80;99.90;;;;;;5043995;28;20452;-73
2023/01/12 11:24:15;;;;;;;6.60;1.57;;;9.90;99.90;;;;;;5052344;28;20438;-73
2023/01/12 11:27:05;;;;;;;14.57;2.70;;;9.90;99.90;;;;;;5053725;28;20513;-73
2023/01/12 11:29:57;;;;;;;10.70;1.63;;;10.00;99.90;;;;;;5049806;28;20587;-72
2023/01/12 11:32:47;;;;;;;8.00;2.07;;;10.00;99.90;;;;;;5042911;28;20926;-72
2023/01/12 11:35:39;;;;;;;10.80;2.70;;;10.00;99.90;;;;;;5047069;28;20521;-72
2023/01/12 11:38:30;;;;;;;5.23;1.70;;;10.00;99.90;;;;;;5059988;28;20259;-72
2023/01/12 11:41:22;;;;;;;8.10;2.17;;;9.90;99.90;;;;;;5061354;28;20578;-72
2023/01/12 11:44:14;;;;;;;11.50;2.40;;;9.90;99.90;;;;;;5052004;28;20713;-72
2023/01/12 11:47:05;;;;;;;17.00;2.33;;;9.90;99.90;;;;;;5069410;28;20554;-72
2023/01/12 11:49:58;;;;;;;3.90;1.20;;;10.00;99.90;;;;;;5067542;28;20474;-72
2023/01/12 11:52:45;;;;;;;10.30;1.87;;;10.00;99.90;;;;;;5065066;28;20536;-72
2023/01/12 11:55:53;;;;;;;9.37;1.80;;;10.00;99.90;;;;;;5059755;28;20442;-72
2023/01/12 11:58:51;;;;;;;7.37;2.17;;;10.00;99.90;;;;;;5063645;28;20814;-72
2023/01/12 12:01:44;;;;;;;5.17;1.80;;;10.00;99.90;;;;;;5057654;28;20975;-72
2023/01/12 12:04:47;;;;;;;6.07;1.70;;;10.00;99.90;;;;;;5049281;28;20641;-72
2023/01/12 12:07:45;;;;;;;7.37;2.40;;;10.00;99.90;;;;;;5059262;28;21090;-72
2023/01/12 12:10:43;;;;;;;4.67;1.30;;;10.00;99.90;;;;;;5068759;28;20500;-72
2023/01/12 12:13:34;;;;;;;4.93;2.20;;;10.10;99.90;;;;;;5053351;28;20452;-73
2023/01/12 12:16:27;;;;;;;7.97;1.57;;;10.10;99.90;;;;;;5064616;28;20421;-72
2023/01/12 12:19:31;;;;;;;8.85;2.17;;;10.10;99.90;;;;;;5054706;28;20526;-72
2023/01/12 12:22:33;;;;;;;4.73;1.70;;;10.10;99.90;;;;;;5064157;28;20215;-72
2023/01/12 12:25:27;;;;;;;5.40;1.83;;;10.10;99.90;;;;;;5065719;28;20565;-72
2023/01/12 12:28:39;;;;;;;4.50;1.30;;;10.20;99.90;;;;;;5073156;28;21006;-72
2023/01/12 12:31:40;;;;;;;9.70;2.20;;;10.10;99.90;;;;;;5065073;28;20439;-72
2023/01/12 12:34:50;;;;;;;9.23;1.33;;;10.10;99.90;;;;;;5048117;28;20459;-72
2023/01/12 12:37:46;;;;;;;8.10;1.93;;;10.10;99.90;;;;;;5060222;28;20780;-72
2023/01/12 12:47:38;;;;;;;6.87;1.53;;;10.10;99.90;;;;;;5066607;28;20458;-73
2023/01/12 12:50:29;;;;;;;8.63;2.03;;;10.10;99.90;;;;;;5051310;28;20479;-72
2023/01/12 12:53:24;;;;;;;6.53;2.00;;;10.10;99.90;;;;;;5046151;28;20263;-72
2023/01/12 12:56:13;;;;;;;4.00;1.50;;;10.10;99.90;;;;;;5048546;28;20469;-72
2023/01/12 12:59:00;;;;;;;5.03;1.97;;;10.00;99.90;;;;;;5058358;28;20459;-73
2023/01/12 13:01:55;;;;;;;4.53;2.07;;;10.00;99.90;;;;;;5062399;28;20455;-72
2023/01/12 13:05:01;;;;;;;5.23;1.40;;;10.00;99.90;;;;;;5050158;28;20456;-72
2023/01/12 13:07:52;;;;;;;3.03;1.23;;;10.00;99.90;;;;;;5064353;28;20522;-73
2023/01/12 13:10:37;;;;;;;4.57;0.90;;;10.00;99.90;;;;;;5062774;28;20795;-73
2023/01/12 13:13:29;;;;;;;3.30;1.23;;;10.00;99.90;;;;;;5060383;28;20497;-73
2023/01/12 13:16:46;;;;;;;5.00;1.40;;;9.90;99.90;;;;;;5054352;28;20447;-72
2023/01/12 13:19:36;;;;;;;3.83;1.30;;;9.90;99.90;;;;;;5055821;28;20946;-73
2023/01/12 13:22:42;;;;;;;3.97;1.70;;;9.90;99.90;;;;;;5060520;28;20498;-72
2023/01/12 13:25:56;;;;;;;5.43;1.10;;;10.00;99.90;;;;;;5046742;28;20451;-72
2023/01/12 13:28:41;;;;;;;3.03;1.40;;;10.00;99.90;;;;;;5022720;28;20626;-72
2023/01/12 13:31:32;;;;;;;4.03;1.30;;;10.00;99.90;;;;;;5059967;28;20819;-72
2023/01/12 13:34:45;;;;;;;4.40;1.20;;;10.00;99.90;;;;;;5059771;28;20447;-72
2023/01/12 13:37:44;;;;;;;3.47;1.30;;;9.90;99.90;;;;;;5054910;28;20861;-72
2023/01/12 13:40:32;;;;;;;10.20;1.13;;;9.90;99.90;;;;;;5060460;28;20518;-72
2023/01/12 13:43:21;;;;;;;7.10;1.40;;;9.90;99.90;;;;;;5049273;28;20781;-72
2023/01/12 13:46:14;;;;;;;3.20;1.27;;;9.90;99.90;;;;;;5052834;28;20574;-72
2023/01/12 13:49:01;;;;;;;4.00;1.30;;;9.90;99.90;;;;;;5060757;28;20855;-72
2023/01/12 13:51:53;;;;;;;6.33;1.30;;;9.90;99.90;;;;;;5056459;28;20444;-72
2023/01/12 13:54:48;;;;;;;6.13;1.53;;;9.90;99.90;;;;;;5050931;28;20833;-72
2023/01/12 13:57:34;;;;;;;2.37;1.20;;;9.80;99.90;;;;;;5056826;28;20841;-72
2023/01/12 14:00:22;;;;;;;2.30;0.93;;;9.90;99.90;;;;;;5042248;28;20435;-73
2023/01/12 14:03:24;;;;;;;9.63;1.37;;;9.90;99.90;;;;;;5068371;28;20869;-72
2023/01/12 14:06:19;;;;;;;3.50;0.90;;;9.90;99.90;;;;;;5054608;28;20818;-72
2023/01/12 14:09:18;;;;;;;9.33;1.27;;;9.80;99.90;;;;;;5051678;28;20474;-72
2023/01/12 14:12:19;;;;;;;7.50;1.20;;;9.90;99.90;;;;;;5056342;28;20585;-73
2023/01/12 14:18:23;;;;;;;1.93;0.93;;;9.90;99.90;;;;;;5050838;28;21002;-73
2023/01/12 14:21:22;;;;;;;19.73;1.40;;;10.00;99.90;;;;;;5050168;28;20469;-72
2023/01/12 14:24:16;;;;;;;6.20;1.43;;;10.00;99.90;;;;;;5059983;28;20462;-73
2023/01/12 14:27:15;;;;;;;3.57;1.10;;;9.90;99.90;;;;;;5058157;28;20462;-73
2023/01/12 14:30:01;;;;;;;5.40;1.20;;;10.00;99.90;;;;;;5049097;28;20546;-73
2023/01/12 14:32:48;;;;;;;3.57;1.10;;;10.00;99.90;;;;;;5059234;28;20434;-73
2023/01/12 14:35:34;;;;;;;2.97;1.50;;;10.00;99.90;;;;;;5049708;28;20446;-72
2023/01/12 14:38:20;;;;;;;2.27;0.93;;;9.90;99.90;;;;;;5047601;28;20460;-73
2023/01/12 14:46:23;;;;;;;3.50;1.00;;;9.90;99.90;;;;;;5052316;28;20435;-72
2023/01/12 14:47:27;;;;;;;2.87;1.00;;;10.00;99.90;;;;;;5056070;28;20441;-72
2023/01/12 14:50:18;;;;;;;8.40;1.50;;;10.10;99.90;;;;;;5047742;28;20859;-72
2023/01/12 14:53:32;;;;;;;1.50;0.80;;;10.10;99.90;;;;;;5051354;28;20455;-72
2023/01/12 14:56:20;;;;;;;3.27;1.13;;;10.00;99.90;;;;;;5052531;28;20447;-72
2023/01/12 14:59:11;;;;;;;3.20;1.00;;;10.00;99.90;;;;;;5051812;28;20441;-72
2023/01/12 15:02:19;;;;;;;3.90;1.10;;;10.00;99.90;;;;;;5067639;28;20439;-72
2023/01/12 15:05:17;;;;;;;2.50;1.10;;;10.00;99.90;;;;;;5059571;28;20438;-72
2023/01/12 15:08:17;;;;;;;2.03;1.07;;;10.00;99.90;;;;;;5050698;28;20560;-72
2023/01/12 15:11:08;;;;;;;4.23;1.37;;;10.00;99.90;;;;;;5039662;28;20733;-72
2023/01/12 15:13:56;;;;;;;2.60;1.00;;;10.10;99.90;;;;;;5044996;28;20451;-72
2023/01/12 15:25:51;;;;;;;2.23;0.90;;;10.10;99.90;;;;;;5051312;28;20456;-72
2023/01/12 15:28:39;;;;;;;4.30;1.07;;;10.10;99.90;;;;;;5046991;28;20470;-72
2023/01/12 15:31:28;;;;;;;4.17;1.47;;;10.20;99.90;;;;;;5046709;28;20410;-72
2023/01/12 15:34:13;;;;;;;3.57;1.00;;;10.20;99.90;;;;;;5043379;28;20430;-73
2023/01/12 15:36:59;;;;;;;3.63;1.10;;;10.20;99.90;;;;;;5050162;28;20790;-73
2023/01/12 15:39:45;;;;;;;2.63;1.10;;;10.20;99.90;;;;;;5047556;28;20530;-72
2023/01/12 15:42:31;;;;;;;5.93;1.63;;;10.20;99.90;;;;;;5050573;28;20454;-72
2023/01/12 15:45:28;;;;;;;4.00;1.30;;;10.20;99.90;;;;;;5055825;28;20468;-73
2023/01/12 15:48:14;;;;;;;1.80;0.87;;;10.30;99.90;;;;;;5046010;28;20903;-72